• Join FlightAware (Why Join?)
  • Login
  • US Flag 
04:46AM EST


 

Airport Tracker/Info


-or-


 

Live Flight TrackerFlight Track Log ✈ BEL3738 ✈ 27-Apr-2013 ✈ LEMG / AGP - EBBR / BRU

Flight Track Log - Related Links

Times and Time Zones

All times are in EDT time to prevent confusion due to time zone crossing. See the BEL3738 flight status page for this flight to view local times or setup timezone preferences in your user account.

Time Position Orientation Groundspeed Altitude Reporting Facility
EDT Latitude Longitude Course Direction KTS MPH feet Rate Location/Type
03:40PM 37.3300 -4.1749 21° North  Level Estimated
03:41PM 37.4391 -4.1203 22° Northeast  Level Estimated
03:42PM 37.5481 -4.0655 22° Northeast  Level Estimated
03:43PM 37.6572 -4.0106 22° Northeast  Level Estimated
03:44PM 37.7662 -3.9555 22° Northeast  Level Estimated
03:45PM 37.8752 -3.9003 22° Northeast  Level Estimated
03:46PM 37.9842 -3.8449 22° Northeast  Level Estimated
03:47PM 38.0931 -3.7894 22° Northeast  Level Estimated
03:48PM 38.2020 -3.7336 22° Northeast  Level Estimated
03:49PM 38.3109 -3.6777 22° Northeast  Level Estimated
03:50PM 38.4198 -3.6217 22° Northeast  Level Estimated
03:51PM 38.5286 -3.5654 22° Northeast  Level Estimated
03:52PM 38.6374 -3.5090 22° Northeast  Level Estimated
03:53PM 38.7462 -3.4525 22° Northeast  Level Estimated
03:54PM 38.8549 -3.3957 22° Northeast  Level Estimated
03:55PM 38.9637 -3.3388 22° Northeast  Level Estimated
03:56PM 39.0724 -3.2817 22° Northeast  Level Estimated
03:57PM 39.1810 -3.2244 22° Northeast  Level Estimated
03:58PM 39.2897 -3.1670 22° Northeast  Level Estimated
03:59PM 39.3983 -3.1094 22° Northeast  Level Estimated
04:00PM 39.5069 -3.0515 22° Northeast  Level Estimated
04:01PM 39.6154 -2.9936 22° Northeast  Level Estimated
04:02PM 39.7239 -2.9354 22° Northeast  Level Estimated
04:03PM 39.8325 -2.8770 22° Northeast  Level Estimated
04:04PM 39.9409 -2.8185 22° Northeast  Level Estimated
04:05PM 40.0494 -2.7598 23° Northeast  Level Estimated
04:06PM 40.1578 -2.7009 23° Northeast  Level Estimated
04:07PM 40.2662 -2.6418 23° Northeast  Level Estimated
04:08PM 40.3745 -2.5825 23° Northeast  Level Estimated
04:09PM 40.4828 -2.5230 23° Northeast  Level Estimated
04:10PM 40.5911 -2.4633 23° Northeast  Level Estimated
04:11PM 40.6994 -2.4035 23° Northeast  Level Estimated
04:12PM 40.8076 -2.3434 23° Northeast  Level Estimated
04:13PM 40.9158 -2.2831 23° Northeast  Level Estimated
04:14PM 41.0240 -2.2227 23° Northeast  Level Estimated
04:15PM 41.1321 -2.1621 23° Northeast  Level Estimated
04:16PM 41.2402 -2.1012 23° Northeast  Level Estimated
04:17PM 41.3483 -2.0401 23° Northeast  Level Estimated
04:18PM 41.4563 -1.9789 23° Northeast  Level Estimated
04:19PM 41.5643 -1.9174 23° Northeast  Level Estimated
04:20PM 41.6723 -1.8558 23° Northeast  Level Estimated
04:21PM 41.7802 -1.7939 23° Northeast  Level Estimated
04:22PM 41.8881 -1.7318 23° Northeast  Level Estimated
04:23PM 41.9960 -1.6695 23° Northeast  Level Estimated
04:24PM 42.1038 -1.6070 23° Northeast  Level Estimated
04:25PM 42.2116 -1.5443 23° Northeast  Level Estimated
04:26PM 42.3194 -1.4814 23° Northeast  Level Estimated
04:27PM 42.4271 -1.4182 23° Northeast  Level Estimated
04:28PM 42.5348 -1.3549 23° Northeast  Level Estimated
04:29PM 42.6425 -1.2913 23° Northeast  Level Estimated
04:30PM 42.7501 -1.2275 24° Northeast  Level Estimated
04:31PM 42.8577 -1.1634 24° Northeast  Level Estimated
04:32PM 42.9653 -1.0992 24° Northeast  Level Estimated
04:33PM 43.0728 -1.0347 24° Northeast  Level Estimated
04:34PM 43.1803 -0.9700 24° Northeast  Level Estimated
04:35PM 43.2877 -0.9051 24° Northeast  Level Estimated
04:36PM 43.3951 -0.8399 24° Northeast  Level Estimated
04:37PM 43.5025 -0.7745 24° Northeast  Level Estimated
04:38PM 43.6098 -0.7089 24° Northeast  Level Estimated
04:39PM 43.7171 -0.6431 24° Northeast  Level Estimated
04:40PM 43.8244 -0.5770 24° Northeast  Level Estimated
04:41PM 43.9316 -0.5106 24° Northeast  Level Estimated
04:42PM 44.0388 -0.4441 24° Northeast  Level Estimated
04:43PM 44.1459 -0.3773 24° Northeast  Level Estimated
04:44PM 44.2531 -0.3102 24° Northeast  Level Estimated
04:45PM 44.3601 -0.2429 24° Northeast  Level Estimated
04:46PM 44.4672 -0.1753 24° Northeast  Level Estimated
04:47PM 44.5741 -0.1076 24° Northeast  Level Estimated
04:48PM 44.6811 -0.0395 24° Northeast  Level Estimated
04:49PM 44.7880 0.0288 24° Northeast  Level Estimated
04:50PM 44.8949 0.0974 24° Northeast  Level Estimated
04:51PM 45.0017 0.1662 24° Northeast  Level Estimated
04:52PM 45.1085 0.2352 25° Northeast  Level Estimated
04:53PM 45.2152 0.3045 25° Northeast  Level Estimated
04:54PM 45.3219 0.3741 25° Northeast  Level Estimated
04:55PM 45.4286 0.4440 25° Northeast  Level Estimated
04:56PM 45.5352 0.5141 25° Northeast  Level Estimated
04:57PM 45.6418 0.5845 25° Northeast  Level Estimated
04:58PM 45.7483 0.6551 25° Northeast  Level Estimated
04:59PM 45.8548 0.7260 25° Northeast  Level Estimated
05:00PM 45.9612 0.7972 25° Northeast  Level Estimated
05:01PM 46.0676 0.8687 25° Northeast  Level Estimated
05:02PM 46.1740 0.9404 25° Northeast  Level Estimated
05:03PM 46.2803 1.0124 25° Northeast  Level Estimated
05:04PM 46.3865 1.0847 25° Northeast  Level Estimated
05:05PM 46.4927 1.1573 25° Northeast  Level Estimated
05:06PM 46.5989 1.2301 25° Northeast  Level Estimated
05:07PM 46.7050 1.3033 25° Northeast  Level Estimated
05:08PM 46.8111 1.3767 25° Northeast  Level Estimated
05:09PM 46.9171 1.4504 25° Northeast  Level Estimated
05:10PM 47.0231 1.5244 25° Northeast  Level Estimated
05:11PM 47.1291 1.5988 26° Northeast  Level Estimated
05:12PM 47.2349 1.6734 26° Northeast  Level Estimated
05:13PM 47.3408 1.7483 26° Northeast  Level Estimated
05:14PM 47.4466 1.8235 26° Northeast  Level Estimated
05:15PM 47.5523 1.8990 26° Northeast  Level Estimated
05:16PM 47.6580 1.9748 26° Northeast  Level Estimated
05:17PM 47.7636 2.0509 26° Northeast  Level Estimated
05:18PM 47.8692 2.1274 26° Northeast  Level Estimated
05:19PM 47.9748 2.2041 26° Northeast  Level Estimated
05:20PM 48.0802 2.2812 26° Northeast  Level Estimated
05:21PM 48.1857 2.3585 26° Northeast  Level Estimated
05:22PM 48.2911 2.4362 26° Northeast  Level Estimated
05:23PM 48.3964 2.5142 26° Northeast  Level Estimated
05:24PM 48.5017 2.5926 26° Northeast  Level Estimated
05:25PM 48.6069 2.6712 26° Northeast  Level Estimated
05:26PM 48.7121 2.7502 26° Northeast  Level Estimated
05:27PM 48.8172 2.8296 26° Northeast  Level Estimated
05:28PM 48.9222 2.9092 26° Northeast  Level Estimated
05:29PM 49.0272 2.9892 27° Northeast  Level Estimated
05:30PM 49.1322 3.0695 27° Northeast  Level Estimated
05:31PM 49.2371 3.1502 27° Northeast  Level Estimated
05:32PM 49.3419 3.2312 27° Northeast  Level Estimated
05:33PM 49.4467 3.3126 27° Northeast  Level Estimated
05:34PM 49.5514 3.3943 27° Northeast  Level Estimated
05:35PM 49.6561 3.4764 27° Northeast  Level Estimated
05:36PM 49.7607 3.5588 27° Northeast  Level Estimated
05:37PM 49.8652 3.6415 27° Northeast  Level Estimated
05:38PM 49.9697 3.7247 27° Northeast  Level Estimated
05:39PM 50.0742 3.8082 27° Northeast  Level Estimated
05:40PM 50.1785 3.8920 27° Northeast  Level Estimated
05:41PM 50.2828 3.9762 27° Northeast  Level Estimated
05:42PM 50.3871 4.0608 27° Northeast  Level Estimated
05:43PM 50.4913 4.1458 27° Northeast  Level Estimated
05:44PM 50.5954 4.2311 27° Northeast  Level Estimated
05:45PM 50.6994 4.3169 28° Northeast  Level Estimated
05:46PM 50.8034 4.4029 28° Northeast  Level Estimated
05:47PM 50.9014 4.4844 28° Northeast  Level Estimated
05:48PM 50.9014 4.4844 112° Southeast  Level Estimated
05:49PM 50.9014 4.4844 112° Southeast  Level Estimated
05:50PM 50.9014 4.4844 112° Southeast  Level Estimated
05:51PM 50.9014 4.4844 112° Southeast  Level Estimated
05:52PM 50.9014 4.4844 112° Southeast  Level Estimated
05:53PM 50.9014 4.4844 112° Southeast  Level Estimated
05:54PM 50.9014 4.4844 112° Southeast  Level Estimated
05:55PM 50.9014 4.4844 112° Southeast  Level Estimated
05:56PM 50.9014 4.4844 112° Southeast  Level Estimated
05:57PM 50.9014 4.4844 112° Southeast  Level Estimated